createdAt,value
2023-08-14T00:01:14.805Z,19.40
2023-08-14T00:03:41.316Z,19.25
2023-08-14T00:06:07.852Z,19.48
2023-08-14T00:08:34.366Z,20.17
2023-08-14T00:11:00.797Z,18.77
2023-08-14T00:13:27.262Z,17.80
2023-08-14T00:15:55.159Z,19.05
2023-08-14T00:18:21.629Z,20.00
2023-08-14T00:20:48.160Z,18.42
2023-08-14T00:23:14.741Z,18.77
2023-08-14T00:25:41.153Z,19.42
2023-08-14T00:28:07.756Z,19.58
2023-08-14T00:30:34.177Z,19.60
2023-08-14T00:33:02.027Z,19.23
2023-08-14T00:35:28.795Z,19.02
2023-08-14T00:37:55.233Z,20.25
2023-08-14T00:40:21.781Z,20.08
2023-08-14T00:42:48.250Z,20.15
2023-08-14T00:45:14.960Z,20.35
2023-08-14T00:47:42.443Z,21.38
2023-08-14T00:50:10.782Z,19.45
2023-08-14T00:52:38.399Z,19.77
2023-08-14T00:55:05.825Z,20.77
2023-08-14T00:57:32.391Z,20.27
2023-08-14T01:00:00.951Z,20.92
2023-08-14T01:02:28.113Z,20.83
2023-08-14T01:04:54.785Z,20.33
2023-08-14T01:07:22.599Z,21.02
2023-08-14T01:09:49.475Z,20.58
2023-08-14T01:12:18.999Z,20.55
2023-08-14T01:14:48.159Z,21.10
2023-08-14T01:17:15.837Z,20.88
2023-08-14T01:19:42.687Z,20.90
2023-08-14T01:22:11.687Z,21.35
2023-08-14T01:24:46.247Z,22.13
2023-08-14T01:27:14.659Z,21.45
2023-08-14T01:29:41.130Z,21.67
2023-08-14T01:32:07.595Z,21.25
2023-08-14T01:34:34.060Z,22.58
2023-08-14T01:37:02.677Z,21.48
2023-08-14T01:39:31.162Z,21.42
2023-08-14T01:42:02.594Z,21.37
2023-08-14T01:44:32.125Z,21.27
2023-08-14T01:46:59.274Z,22.33
2023-08-14T01:49:27.917Z,23.38
2023-08-14T01:51:54.847Z,21.88
2023-08-14T01:54:21.272Z,22.42
2023-08-14T01:56:47.710Z,24.65
2023-08-14T01:59:14.149Z,24.10
2023-08-14T02:01:42.012Z,24.42
2023-08-14T02:04:08.926Z,23.00
2023-08-14T02:06:35.388Z,24.90
2023-08-14T02:09:01.885Z,25.02
2023-08-14T02:11:28.351Z,24.08
2023-08-14T02:13:54.794Z,22.20
2023-08-14T02:16:21.223Z,24.33
2023-08-14T02:18:49.066Z,25.20
2023-08-14T02:21:15.550Z,25.85
2023-08-14T02:23:41.972Z,26.95
2023-08-14T02:26:08.414Z,25.00
2023-08-14T02:28:34.821Z,23.77
2023-08-14T02:31:02.488Z,26.95
2023-08-14T02:33:29.090Z,24.15
2023-08-14T02:35:56.888Z,25.63
2023-08-14T02:38:23.366Z,24.17
2023-08-14T02:40:49.796Z,24.60
2023-08-14T02:43:16.225Z,23.45
2023-08-14T02:45:42.690Z,22.85
2023-08-14T02:48:09.215Z,22.20
2023-08-14T02:50:35.698Z,23.83
2023-08-14T02:53:03.697Z,25.00
2023-08-14T02:55:30.121Z,23.27
2023-08-14T02:57:56.568Z,25.15
2023-08-14T03:00:23.016Z,23.08
2023-08-14T03:02:49.597Z,24.02
2023-08-14T03:05:17.280Z,23.80
2023-08-14T03:07:43.747Z,23.48
2023-08-14T03:10:11.653Z,24.48
2023-08-14T03:12:38.085Z,24.33
2023-08-14T03:15:05.180Z,24.33
2023-08-14T03:17:31.690Z,26.25
2023-08-14T03:19:58.204Z,25.05
2023-08-14T03:22:24.666Z,24.83
2023-08-14T03:24:51.125Z,22.67
2023-08-14T03:27:18.959Z,23.42
2023-08-14T03:29:45.395Z,21.38
2023-08-14T03:32:11.876Z,22.30
2023-08-14T03:34:38.375Z,22.15
2023-08-14T03:37:04.825Z,22.45
2023-08-14T03:39:31.285Z,24.02
2023-08-14T03:41:59.027Z,23.73
2023-08-14T03:44:27.119Z,24.23
2023-08-14T03:46:53.578Z,21.77
2023-08-14T03:49:20.068Z,22.02
2023-08-14T03:51:46.496Z,21.15
2023-08-14T03:54:13.047Z,22.20
2023-08-14T03:56:39.518Z,20.52
2023-08-14T03:59:06.051Z,21.95
2023-08-14T04:01:34.110Z,20.35
2023-08-14T04:04:00.700Z,20.65
2023-08-14T04:06:27.236Z,20.63
2023-08-14T04:08:53.726Z,21.60
2023-08-14T04:11:20.298Z,20.48
2023-08-14T04:13:46.715Z,21.70
2023-08-14T04:16:13.203Z,20.42
2023-08-14T04:18:41.059Z,20.25
2023-08-14T04:21:07.491Z,20.00
2023-08-14T04:23:33.996Z,19.92
2023-08-14T04:26:00.444Z,22.05
2023-08-14T04:28:26.877Z,19.88
2023-08-14T04:30:53.369Z,21.27
2023-08-14T04:33:19.892Z,20.55
2023-08-14T04:35:47.756Z,18.88
2023-08-14T04:38:14.205Z,21.65
2023-08-14T04:40:40.840Z,21.33
2023-08-14T04:43:07.316Z,19.83
2023-08-14T04:45:33.828Z,19.38
2023-08-14T04:48:00.310Z,20.98
2023-08-14T04:50:26.796Z,19.83
2023-08-14T04:52:54.607Z,19.83
2023-08-14T04:55:21.022Z,19.90
2023-08-14T04:57:47.470Z,17.70
2023-08-14T05:00:14.844Z,20.67
2023-08-14T05:02:41.437Z,21.05
2023-08-14T05:05:08.294Z,20.13
2023-08-14T05:07:34.799Z,18.88
2023-08-14T05:10:02.768Z,20.55
2023-08-14T05:12:29.209Z,19.52
2023-08-14T05:14:55.719Z,20.05
2023-08-14T05:17:22.238Z,21.02
2023-08-14T05:19:48.759Z,19.95
2023-08-14T05:22:15.285Z,17.98
2023-08-14T05:24:41.833Z,18.58
2023-08-14T05:27:09.681Z,18.55
2023-08-14T05:29:36.137Z,18.33
2023-08-14T05:32:02.567Z,19.23
2023-08-14T05:34:29.066Z,17.88
2023-08-14T05:36:55.550Z,17.63
2023-08-14T05:39:22.039Z,19.88
2023-08-14T05:41:48.511Z,18.73
2023-08-14T05:44:16.342Z,19.08
2023-08-14T05:46:43.100Z,19.80
2023-08-14T05:49:09.552Z,19.67
2023-08-14T05:51:36.042Z,19.13
2023-08-14T05:54:02.493Z,18.85
2023-08-14T05:56:28.937Z,18.98
2023-08-14T05:58:55.448Z,19.25
2023-08-14T06:01:23.281Z,19.10
2023-08-14T06:03:49.803Z,20.17
2023-08-14T06:06:16.365Z,20.73
2023-08-14T06:08:42.822Z,20.23
2023-08-14T06:11:09.302Z,19.77
2023-08-14T06:13:35.791Z,20.70
2023-08-14T06:16:02.260Z,21.35
2023-08-14T06:18:31.306Z,21.15
2023-08-14T06:20:57.767Z,21.80
2023-08-14T06:23:24.208Z,20.85
2023-08-14T06:25:51.743Z,22.92
2023-08-14T06:28:18.303Z,21.13
2023-08-14T06:30:44.939Z,20.65
2023-08-14T06:33:15.236Z,20.67
2023-08-14T06:35:43.457Z,21.55
2023-08-14T06:38:10.080Z,21.17
2023-08-14T06:40:36.524Z,21.65
2023-08-14T06:43:03.055Z,22.60
2023-08-14T06:45:29.588Z,21.45
2023-08-14T06:47:56.053Z,21.73
2023-08-14T06:50:22.570Z,20.63
2023-08-14T06:52:50.460Z,21.05
2023-08-14T06:55:17.000Z,20.27
2023-08-14T06:57:43.533Z,20.70
2023-08-14T07:00:11.409Z,19.00
2023-08-14T07:02:37.952Z,19.90
2023-08-14T07:05:04.747Z,20.33
2023-08-14T07:07:31.183Z,20.27
2023-08-14T07:09:59.002Z,21.67
2023-08-14T07:12:25.478Z,22.50
2023-08-14T07:14:52.004Z,22.48
2023-08-14T07:17:20.123Z,23.38
2023-08-14T07:19:46.638Z,25.02
2023-08-14T07:22:13.148Z,24.88
2023-08-14T07:24:39.584Z,23.02
2023-08-14T07:27:07.656Z,22.45
2023-08-14T07:29:36.218Z,22.92
2023-08-14T07:32:03.962Z,20.48
2023-08-14T07:34:30.421Z,20.45
2023-08-14T07:36:56.889Z,17.42
2023-08-14T07:39:23.604Z,19.13
2023-08-14T07:42:02.211Z,19.85
2023-08-14T07:44:30.144Z,18.30
2023-08-14T07:46:56.606Z,17.50
2023-08-14T07:49:23.132Z,16.65
2023-08-14T07:51:50.988Z,16.85
2023-08-14T07:57:21.474Z,17.65
2023-08-14T17:38:35.431Z,12.35
2023-08-14T17:41:02.711Z,12.63
2023-08-14T17:43:31.173Z,12.57
2023-08-14T17:46:00.759Z,12.95
2023-08-14T17:48:27.421Z,13.27
2023-08-14T17:50:56.097Z,13.82
2023-08-14T17:53:22.741Z,13.57
2023-08-14T17:55:50.832Z,13.23
2023-08-14T17:58:19.413Z,12.63
2023-08-14T18:00:46.150Z,13.43
2023-08-14T18:03:12.793Z,12.65
2023-08-14T18:05:39.423Z,13.82
2023-08-14T18:08:06.017Z,14.07
2023-08-14T18:10:32.488Z,13.50
2023-08-14T18:13:00.407Z,13.75
2023-08-14T18:15:28.852Z,13.70
2023-08-14T18:18:22.089Z,14.38
2023-08-14T18:20:54.426Z,13.65
2023-08-14T18:23:33.810Z,14.60
2023-08-14T18:26:09.558Z,14.43
2023-08-14T18:28:40.982Z,15.27
2023-08-14T19:22:16.733Z,17.05
2023-08-14T19:24:52.708Z,16.35
2023-08-14T19:27:19.407Z,15.43
2023-08-14T19:29:46.083Z,15.60
2023-08-14T19:32:12.539Z,15.55
2023-08-14T19:44:18.309Z,17.30
2023-08-14T19:46:44.743Z,18.42
2023-08-14T19:49:11.284Z,18.98
2023-08-14T19:51:37.705Z,18.88
2023-08-14T19:54:04.479Z,21.02
2023-08-14T19:56:31.015Z,21.15
2023-08-14T19:58:57.439Z,21.35
2023-08-14T20:01:25.346Z,21.35
2023-08-14T20:03:54.559Z,21.90
2023-08-14T20:06:21.054Z,20.38
2023-08-14T20:08:47.530Z,20.25
2023-08-14T20:11:15.683Z,20.50
2023-08-14T20:13:42.082Z,19.50
2023-08-14T20:16:09.124Z,18.33
2023-08-14T20:18:37.130Z,18.38
2023-08-14T20:21:03.759Z,17.40
2023-08-14T20:23:30.246Z,18.25
2023-08-14T20:25:56.704Z,17.45
2023-08-14T20:28:23.202Z,17.13
2023-08-14T20:30:49.718Z,17.27
2023-08-14T20:33:16.322Z,18.10
2023-08-14T20:35:44.784Z,17.80
2023-08-14T20:38:11.428Z,17.27
2023-08-14T20:40:38.279Z,17.60
2023-08-14T20:43:08.134Z,17.98
2023-08-14T20:45:34.859Z,18.42
2023-08-14T20:48:02.457Z,19.60
2023-08-14T20:50:28.944Z,19.17
2023-08-14T20:52:56.902Z,19.83
2023-08-14T20:55:27.074Z,20.30
2023-08-14T20:57:53.580Z,20.33
2023-08-14T21:00:20.378Z,21.30
2023-08-14T21:02:47.033Z,20.13
2023-08-14T21:05:13.650Z,20.50
2023-08-14T21:07:40.253Z,19.90
2023-08-14T21:10:08.438Z,21.00
2023-08-14T21:12:35.039Z,20.35
2023-08-14T21:15:01.545Z,18.98
2023-08-14T21:17:28.117Z,20.67
2023-08-14T21:19:54.591Z,20.17
2023-08-14T21:22:21.182Z,20.55
2023-08-14T21:24:47.789Z,19.80
2023-08-14T21:27:26.081Z,19.85
2023-08-14T21:29:52.626Z,21.03
2023-08-14T21:32:19.220Z,20.83
2023-08-14T21:34:45.730Z,20.33
2023-08-14T21:37:12.683Z,19.85
2023-08-14T21:39:39.225Z,21.50
2023-08-14T21:42:09.954Z,20.90
2023-08-14T21:44:37.868Z,20.55
2023-08-14T21:47:04.714Z,20.17
2023-08-14T21:49:31.251Z,20.73
2023-08-14T21:51:58.024Z,21.50
2023-08-14T21:54:24.480Z,20.40
2023-08-14T21:57:08.521Z,21.10
2023-08-14T21:59:35.039Z,20.50
2023-08-14T22:02:02.872Z,20.15
2023-08-14T22:04:30.613Z,20.48
2023-08-14T22:06:57.187Z,20.52
2023-08-14T22:09:38.827Z,21.42
2023-08-14T22:12:05.764Z,21.83
2023-08-14T22:14:35.479Z,23.02
2023-08-14T22:17:03.509Z,22.27
2023-08-14T22:19:30.173Z,23.20
2023-08-14T22:21:56.687Z,24.63
2023-08-14T22:26:57.891Z,23.70
2023-08-14T22:29:24.563Z,24.92
2023-08-14T22:31:51.286Z,24.55
2023-08-14T22:34:19.547Z,25.38
2023-08-14T22:36:46.251Z,23.98
2023-08-14T22:39:12.753Z,25.02
2023-08-14T22:41:39.238Z,24.77
2023-08-14T22:44:05.789Z,24.83
2023-08-14T22:46:32.306Z,24.08
2023-08-14T22:48:58.739Z,25.65
2023-08-14T22:51:26.606Z,25.30
2023-08-14T22:53:53.091Z,25.42
2023-08-14T22:56:19.679Z,25.35
2023-08-14T22:58:46.103Z,24.90
2023-08-14T23:01:12.545Z,25.27
2023-08-14T23:03:39.109Z,25.73
2023-08-14T23:06:05.645Z,26.48
2023-08-14T23:08:33.455Z,26.38
2023-08-14T23:11:01.415Z,26.77
2023-08-14T23:13:27.893Z,25.55
2023-08-14T23:15:54.385Z,25.17
2023-08-14T23:18:20.858Z,26.35
2023-08-14T23:20:47.322Z,26.13
2023-08-14T23:23:13.799Z,26.55
2023-08-14T23:25:41.652Z,25.98
2023-08-14T23:28:08.180Z,26.15
2023-08-14T23:30:36.598Z,25.10
2023-08-14T23:33:03.275Z,25.17
2023-08-14T23:35:29.960Z,24.25
2023-08-14T23:37:56.434Z,25.02
2023-08-14T23:40:22.939Z,23.65
2023-08-14T23:42:50.725Z,25.13
2023-08-14T23:45:17.281Z,24.65
2023-08-14T23:47:43.765Z,23.73
2023-08-14T23:50:10.405Z,23.90
2023-08-14T23:52:36.902Z,22.65
2023-08-14T23:55:03.565Z,22.60
2023-08-14T23:57:29.987Z,22.23
2023-08-14T23:59:57.832Z,22.02
